NCAR-RAP Real-Time Weather Data

Output produced by METARs form (30 April 2017  15:05 UTC)
found at http://weather.rap.ucar.edu/surface/
 
Conditions at: KFMY observed 30 April 2017  14:53 UTC
Temperature: 28.9°C (84°F)
Dewpoint: 21.1°C (70°F) [RH = 63%]
Pressure (altimeter): 30.08 inches Hg (1018.7 mb)
[Sea-level pressure: 1018.9 mb]
Winds: from the SSE (150 degrees) at 16 MPH (14 knots; 7.3 m/s)
gusting to 23 MPH (20 knots; 10.4 m/s)
Visibility: 10 or more miles (16+ km)
Ceiling: at least 12,000 feet AGL
Clouds: sky clear below 12,000 feet AGL
Present Weather: no significant weather observed at this time
KFMY 301453Z 15014G20KT 10SM CLR 29/21 A3008 RMK AO2 SLP189 T02890211 58001

Conditions at: KFMY observed 30 April 2017  13:53 UTC
Temperature: 27.2°C (81°F)
Dewpoint: 21.7°C (71°F) [RH = 72%]
Pressure (altimeter): 30.08 inches Hg (1018.7 mb)
[Sea-level pressure: 1018.7 mb]
Winds: from the SE (130 degrees) at 15 MPH (13 knots; 6.8 m/s)
gusting to 22 MPH (19 knots; 9.9 m/s)
Visibility: 10 or more miles (16+ km)
Ceiling: at least 12,000 feet AGL
Clouds: sky clear below 12,000 feet AGL
Present Weather: no significant weather observed at this time
KFMY 301353Z 13013G19KT 10SM CLR 27/22 A3008 RMK AO2 SLP187 T02720217

Conditions at: KFMY observed 30 April 2017  12:53 UTC
Temperature: 25.0°C (77°F)
Dewpoint: 21.7°C (71°F) [RH = 82%]
Pressure (altimeter): 30.10 inches Hg (1019.4 mb)
[Sea-level pressure: 1019.3 mb]
Winds: from the ESE (120 degrees) at 9 MPH (8 knots; 4.2 m/s)
Visibility: 10 or more miles (16+ km)
Ceiling: at least 12,000 feet AGL
Clouds: sky clear below 12,000 feet AGL
Present Weather: no significant weather observed at this time
KFMY 301253Z 12008KT 10SM CLR 25/22 A3010 RMK AO2 SLP193 T02500217

Conditions at: KFMY observed 30 April 2017  11:53 UTC
Temperature: 23.3°C (74°F)
Dewpoint: 21.7°C (71°F) [RH = 91%]
Pressure (altimeter): 30.09 inches Hg (1019.0 mb)
[Sea-level pressure: 1019.0 mb]
Winds: from the ESE (110 degrees) at 9 MPH (8 knots; 4.2 m/s)
Visibility: 9 miles (14 km)
Ceiling: at least 12,000 feet AGL
Clouds: sky clear below 12,000 feet AGL
Present Weather: no significant weather observed at this time
KFMY 301153Z 11008KT 9SM CLR 23/22 A3009 RMK AO2 SLP190 T02330217 10239 20228 53013

Conditions at: KFMY observed 30 April 2017  10:53 UTC
Temperature: 23.3°C (74°F)
Dewpoint: 21.7°C (71°F) [RH = 91%]
Pressure (altimeter): 30.08 inches Hg (1018.7 mb)
[Sea-level pressure: 1018.6 mb]
Winds: from the ESE (120 degrees) at 8 MPH (7 knots; 3.6 m/s)
Visibility: 8 miles (13 km)
Ceiling: at least 12,000 feet AGL
Clouds: few clouds at 2600 feet AGL
Present Weather: no significant weather observed at this time
KFMY 301053Z 12007KT 8SM FEW026 23/22 A3008 RMK AO2 SLP186 T02330217

Conditions at: KFMY observed 30 April 2017  09:53 UTC
Temperature: 23.3°C (74°F)
Dewpoint: 22.2°C (72°F) [RH = 94%]
Pressure (altimeter): 30.06 inches Hg (1018.0 mb)
[Sea-level pressure: 1018.1 mb]
Winds: from the ESE (110 degrees) at 8 MPH (7 knots; 3.6 m/s)
Visibility: 9 miles (14 km)
Ceiling: at least 12,000 feet AGL
Clouds: sky clear below 12,000 feet AGL
Present Weather: automated observation with no human augmentation;
there may or may not be significant weather present at this time
KFMY 300953Z AUTO 11007KT 9SM CLR 23/22 A3006 RMK AO2 SLP181 T02330222

Conditions at: KFMY observed 30 April 2017  08:53 UTC
Temperature: 23.3°C (74°F)
Dewpoint: 22.2°C (72°F) [RH = 94%]
Pressure (altimeter): 30.05 inches Hg (1017.7 mb)
[Sea-level pressure: 1017.8 mb]
Winds: from the ESE (120 degrees) at 9 MPH (8 knots; 4.2 m/s)
Visibility: 9 miles (14 km)
Ceiling: at least 12,000 feet AGL
Clouds: few clouds at 2200 feet AGL
few clouds at 3000 feet AGL
scattered clouds at 5000 feet AGL
Present Weather: automated observation with no human augmentation;
there may or may not be significant weather present at this time
KFMY 300853Z AUTO 12008KT 9SM FEW022 FEW030 SCT050 23/22 A3005 RMK AO2 SLP178 T02330222 56010

Conditions at: KFMY observed 30 April 2017  07:53 UTC
Temperature: 23.3°C (74°F)
Dewpoint: 22.2°C (72°F) [RH = 94%]
Pressure (altimeter): 30.06 inches Hg (1018.0 mb)
[Sea-level pressure: 1018.1 mb]
Winds: from the ESE (120 degrees) at 9 MPH (8 knots; 4.2 m/s)
Visibility: 10 or more miles (16+ km)
Ceiling: 6500 feet AGL
Clouds: few clouds at 2500 feet AGL
scattered clouds at 3400 feet AGL
broken clouds at 6500 feet AGL
Present Weather: automated observation with no human augmentation;
there may or may not be significant weather present at this time
KFMY 300753Z AUTO 12008KT 10SM FEW025 SCT034 BKN065 23/22 A3006 RMK AO2 SLP181 T02330222

Conditions at: KFMY observed 30 April 2017  06:53 UTC
Temperature: 23.9°C (75°F)
Dewpoint: 22.2°C (72°F) [RH = 90%]
Pressure (altimeter): 30.06 inches Hg (1018.0 mb)
[Sea-level pressure: 1018.2 mb]
Winds: from the E (100 degrees) at 9 MPH (8 knots; 4.2 m/s)
Visibility: 10 or more miles (16+ km)
Ceiling: at least 12,000 feet AGL
Clouds: few clouds at 6000 feet AGL
Present Weather: automated observation with no human augmentation;
there may or may not be significant weather present at this time
KFMY 300653Z AUTO 10008KT 10SM FEW060 24/22 A3006 RMK AO2 SLP182 T02390222

Conditions at: KFMY observed 30 April 2017  05:53 UTC
Temperature: 23.9°C (75°F)
Dewpoint: 22.2°C (72°F) [RH = 90%]
Pressure (altimeter): 30.08 inches Hg (1018.7 mb)
[Sea-level pressure: 1018.8 mb]
Winds: from the E (100 degrees) at 8 MPH (7 knots; 3.6 m/s)
Visibility: 10 or more miles (16+ km)
Ceiling: at least 12,000 feet AGL
Clouds: sky clear below 12,000 feet AGL
Present Weather: automated observation with no human augmentation;
there may or may not be significant weather present at this time
KFMY 300553Z AUTO 10007KT 10SM CLR 24/22 A3008 RMK AO2 SLP188 T02390222 10294 20239 58005

Conditions at: KFMY observed 30 April 2017  04:53 UTC
Temperature: 23.9°C (75°F)
Dewpoint: 21.7°C (71°F) [RH = 88%]
Pressure (altimeter): 30.08 inches Hg (1018.7 mb)
[Sea-level pressure: 1018.9 mb]
Winds: from the E (100 degrees) at 12 MPH (10 knots; 5.2 m/s)
Visibility: 10 or more miles (16+ km)
Ceiling: at least 12,000 feet AGL
Clouds: sky clear below 12,000 feet AGL
Present Weather: automated observation with no human augmentation;
there may or may not be significant weather present at this time
KFMY 300453Z AUTO 10010KT 10SM CLR 24/22 A3008 RMK AO2 SLP189 T02390217 403500233

Conditions at: KFMY observed 30 April 2017  03:53 UTC
Temperature: 24.4°C (76°F)
Dewpoint: 21.7°C (71°F) [RH = 85%]
Pressure (altimeter): 30.09 inches Hg (1019.0 mb)
[Sea-level pressure: 1019.2 mb]
Winds: from the ESE (110 degrees) at 9 MPH (8 knots; 4.2 m/s)
Visibility: 10 or more miles (16+ km)
Ceiling: at least 12,000 feet AGL
Clouds: sky clear below 12,000 feet AGL
Present Weather: automated observation with no human augmentation;
there may or may not be significant weather present at this time
KFMY 300353Z AUTO 11008KT 10SM CLR 24/22 A3009 RMK AO2 SLP192 T02440217

Conditions at: KFMY observed 30 April 2017  02:53 UTC
Temperature: 25.6°C (78°F)
Dewpoint: 21.1°C (70°F) [RH = 76%]
Pressure (altimeter): 30.09 inches Hg (1019.0 mb)
[Sea-level pressure: 1019.2 mb]
Winds: from the ESE (110 degrees) at 14 MPH (12 knots; 6.2 m/s)
Visibility: 10 or more miles (16+ km)
Ceiling: at least 12,000 feet AGL
Clouds: sky clear below 12,000 feet AGL
Present Weather: automated observation with no human augmentation;
there may or may not be significant weather present at this time
KFMY 300253Z AUTO 11012KT 10SM CLR 26/21 A3009 RMK AO2 SLP192 T02560211 51019

Conditions at: KFMY observed 30 April 2017  01:53 UTC
Temperature: 26.1°C (79°F)
Dewpoint: 20.6°C (69°F) [RH = 72%]
Pressure (altimeter): 30.07 inches Hg (1018.4 mb)
[Sea-level pressure: 1018.5 mb]
Winds: from the ESE (110 degrees) at 12 MPH (10 knots; 5.2 m/s)
Visibility: 10 or more miles (16+ km)
Ceiling: at least 12,000 feet AGL
Clouds: sky clear below 12,000 feet AGL
Present Weather: no significant weather observed at this time
KFMY 300153Z 11010KT 10SM CLR 26/21 A3007 RMK AO2 SLP185 T02610206

Conditions at: KFMY observed 30 April 2017  00:53 UTC
Temperature: 27.8°C (82°F)
Dewpoint: 18.9°C (66°F) [RH = 58%]
Pressure (altimeter): 30.06 inches Hg (1018.0 mb)
[Sea-level pressure: 1018.1 mb]
Winds: from the E (100 degrees) at 10 MPH (9 knots; 4.7 m/s)
Visibility: 10 or more miles (16+ km)
Ceiling: at least 12,000 feet AGL
Clouds: sky clear below 12,000 feet AGL
Present Weather: no significant weather observed at this time
KFMY 300053Z 10009KT 10SM CLR 28/19 A3006 RMK AO2 SLP181 T02780189

Conditions at: KFMY observed 29 April 2017  23:53 UTC
Temperature: 29.4°C (85°F)
Dewpoint: 18.3°C (65°F) [RH = 51%]
Pressure (altimeter): 30.04 inches Hg (1017.4 mb)
[Sea-level pressure: 1017.4 mb]
Winds: from the ESE (120 degrees) at 13 MPH (11 knots; 5.7 m/s)
Visibility: 10 or more miles (16+ km)
Ceiling: at least 12,000 feet AGL
Clouds: sky clear below 12,000 feet AGL
Present Weather: no significant weather observed at this time
KFMY 292353Z 12011KT 10SM CLR 29/18 A3004 RMK AO2 SLP174 T02940183 10350 20294 53004

Conditions at: KFMY observed 29 April 2017  22:53 UTC
Temperature: 31.7°C (89°F)
Dewpoint: 17.8°C (64°F) [RH = 44%]
Pressure (altimeter): 30.03 inches Hg (1017.0 mb)
[Sea-level pressure: 1017.0 mb]
Winds: from the ESE (110 degrees) at 15 MPH (13 knots; 6.8 m/s)
Visibility: 10 or more miles (16+ km)
Ceiling: at least 12,000 feet AGL
Clouds: scattered clouds at 6000 feet AGL
Present Weather: no significant weather observed at this time
KFMY 292253Z 11013KT 10SM SCT060 32/18 A3003 RMK AO2 SLP170 T03170178

Conditions at: KFMY observed 29 April 2017  21:53 UTC
Temperature: 32.8°C (91°F)
Dewpoint: 17.8°C (64°F) [RH = 41%]
Pressure (altimeter): 30.02 inches Hg (1016.7 mb)
[Sea-level pressure: 1016.7 mb]
Winds: from the ESE (110 degrees) at 16 MPH (14 knots; 7.3 m/s)
gusting to 23 MPH (20 knots; 10.4 m/s)
Visibility: 10 or more miles (16+ km)
Ceiling: at least 12,000 feet AGL
Clouds: few clouds at 6000 feet AGL
Present Weather: no significant weather observed at this time
KFMY 292153Z 11014G20KT 10SM FEW060 33/18 A3002 RMK AO2 SLP167 T03280178

Conditions at: KFMY observed 29 April 2017  20:53 UTC
Temperature: 32.2°C (90°F)
Dewpoint: 17.8°C (64°F) [RH = 42%]
Pressure (altimeter): 30.03 inches Hg (1017.0 mb)
[Sea-level pressure: 1017.0 mb]
Winds: from the ESE (120 degrees) at 14 MPH (12 knots; 6.2 m/s)
Visibility: 10 or more miles (16+ km)
Ceiling: 7500 feet AGL
Clouds: scattered clouds at 6000 feet AGL
broken clouds at 7500 feet AGL
Present Weather: no significant weather observed at this time
KFMY 292053Z 12012KT 10SM SCT060 BKN075 32/18 A3003 RMK AO2 SLP170 T03220178 56017

Conditions at: KFMY observed 29 April 2017  19:53 UTC
Temperature: 33.9°C (93°F)
Dewpoint: 17.2°C (63°F) [RH = 37%]
Pressure (altimeter): 30.03 inches Hg (1017.0 mb)
[Sea-level pressure: 1017.2 mb]
Winds: from the ESE (120 degrees) at 13 MPH (11 knots; 5.7 m/s)
gusting to 22 MPH (19 knots; 9.9 m/s)
Visibility: 10 or more miles (16+ km)
Ceiling: at least 12,000 feet AGL
Clouds: few clouds at 7000 feet AGL
Present Weather: no significant weather observed at this time
KFMY 291953Z 12011G19KT 10SM FEW070 34/17 A3003 RMK AO2 SLP172 T03390172

Conditions at: KFMY observed 29 April 2017  18:53 UTC
Temperature: 34.4°C (94°F)
Dewpoint: 17.8°C (64°F) [RH = 37%]
Pressure (altimeter): 30.06 inches Hg (1018.0 mb)
[Sea-level pressure: 1018.1 mb]
Winds: from the SSE (150 degrees) at 13 MPH (11 knots; 5.7 m/s)
gusting to 24 MPH (21 knots; 10.9 m/s)
Visibility: 10 or more miles (16+ km)
Ceiling: at least 12,000 feet AGL
Clouds: few clouds at 6500 feet AGL
Present Weather: no significant weather observed at this time
KFMY 291853Z 15011G21KT 10SM FEW065 34/18 A3006 RMK AO2 SLP181 T03440178

Conditions at: KFMY observed 29 April 2017  17:53 UTC
Temperature: 33.9°C (93°F)
Dewpoint: 18.3°C (65°F) [RH = 40%]
Pressure (altimeter): 30.08 inches Hg (1018.7 mb)
[Sea-level pressure: 1018.7 mb]
Winds: from the SE (130 degrees) at 15 MPH (13 knots; 6.8 m/s)
gusting to 25 MPH (22 knots; 11.4 m/s)
Visibility: 10 or more miles (16+ km)
Ceiling: at least 12,000 feet AGL
Clouds: few clouds at 5500 feet AGL
Present Weather: no significant weather observed at this time
KFMY 291753Z 13013G22KT 10SM FEW055 34/18 A3008 RMK AO2 SLP187 60000 T03390183 10339 20239 58012

Conditions at: KFMY observed 29 April 2017  16:53 UTC
Temperature: 32.8°C (91°F)
Dewpoint: 19.4°C (67°F) [RH = 45%]
Pressure (altimeter): 30.09 inches Hg (1019.0 mb)
[Sea-level pressure: 1019.2 mb]
Winds: from the ESE (120 degrees) at 15 MPH (13 knots; 6.8 m/s)
gusting to 22 MPH (19 knots; 9.9 m/s)
Visibility: 10 or more miles (16+ km)
Ceiling: at least 12,000 feet AGL
Clouds: scattered clouds at 4900 feet AGL
Present Weather: no significant weather observed at this time
KFMY 291653Z 12013G19KT 10SM SCT049 33/19 A3009 RMK AO2 RAB00E17 SLP192 P0000 T03280194

Conditions at: KFMY observed 29 April 2017  15:53 UTC
Temperature: 31.1°C (88°F)
Dewpoint: 19.4°C (67°F) [RH = 50%]
Pressure (altimeter): 30.10 inches Hg (1019.4 mb)
[Sea-level pressure: 1019.6 mb]
Winds: from the SSE (150 degrees) at 15 MPH (13 knots; 6.8 m/s)
gusting to 24 MPH (21 knots; 10.9 m/s)
Visibility: 10 or more miles (16+ km)
Ceiling: at least 12,000 feet AGL
Clouds: scattered clouds at 4000 feet AGL
Present Weather: no significant weather observed at this time
KFMY 291553Z 15013G21KT 10SM SCT040 31/19 A3010 RMK AO2 SLP196 T03110194

Conditions at: KFMY observed 29 April 2017  14:53 UTC
Temperature: 30.0°C (86°F)
Dewpoint: 20.6°C (69°F) [RH = 57%]
Pressure (altimeter): 30.11 inches Hg (1019.7 mb)
[Sea-level pressure: 1019.9 mb]
Winds: from the SSE (150 degrees) at 18 MPH (16 knots; 8.3 m/s)
gusting to 25 MPH (22 knots; 11.4 m/s)
Visibility: 10 or more miles (16+ km)
Ceiling: 3300 feet AGL
Clouds: broken clouds at 3300 feet AGL
Present Weather: no significant weather observed at this time
KFMY 291453Z 15016G22KT 10SM BKN033 30/21 A3011 RMK AO2 SLP199 T03000206 50003

Conditions at: KFMY observed 29 April 2017  13:53 UTC
Temperature: 28.3°C (83°F)
Dewpoint: 21.7°C (71°F) [RH = 67%]
Pressure (altimeter): 30.13 inches Hg (1020.4 mb)
[Sea-level pressure: 1020.4 mb]
Winds: from the ESE (120 degrees) at 16 MPH (14 knots; 7.3 m/s)
gusting to 25 MPH (22 knots; 11.4 m/s)
Visibility: 10 or more miles (16+ km)
Ceiling: 3100 feet AGL
Clouds: scattered clouds at 2400 feet AGL
broken clouds at 3100 feet AGL
Present Weather: no significant weather observed at this time
KFMY 291353Z 12014G22KT 10SM SCT024 BKN031 28/22 A3013 RMK AO2 SLP204 T02830217

Conditions at: KFMY observed 29 April 2017  12:53 UTC
Temperature: 26.7°C (80°F)
Dewpoint: 22.8°C (73°F) [RH = 79%]
Pressure (altimeter): 30.12 inches Hg (1020.1 mb)
[Sea-level pressure: 1020.1 mb]
Winds: from the ESE (120 degrees) at 13 MPH (11 knots; 5.7 m/s)
Visibility: 10 or more miles (16+ km)
Ceiling: at least 12,000 feet AGL
Clouds: sky clear below 12,000 feet AGL
Present Weather:
SOME DATA ABOVE MAY BE INACCURATE!!!
"$" is an indication the sensor requires maintenance
KFMY 291253Z 12011KT 10SM CLR 27/23 A3012 RMK AO2 SLP201 T02670228 $

Conditions at: KFMY observed 29 April 2017  11:53 UTC
Temperature: 23.9°C (75°F)
Dewpoint: 22.8°C (73°F) [RH = 94%]
Pressure (altimeter): 30.10 inches Hg (1019.4 mb)
[Sea-level pressure: 1019.6 mb]
Winds: from the ESE (110 degrees) at 9 MPH (8 knots; 4.2 m/s)
Visibility: 8 miles (13 km)
Ceiling: at least 12,000 feet AGL
Clouds: sky clear below 12,000 feet AGL
Present Weather:
SOME DATA ABOVE MAY BE INACCURATE!!!
"$" is an indication the sensor requires maintenance
KFMY 291153Z 11008KT 8SM CLR 24/23 A3010 RMK AO2 SLP196 T02390228 10244 20233 53013 $

Conditions at: KFMY observed 29 April 2017  10:53 UTC
Temperature: 23.3°C (74°F)
Dewpoint: 22.8°C (73°F) [RH = 97%]
Pressure (altimeter): 30.09 inches Hg (1019.0 mb)
[Sea-level pressure: 1019.0 mb]
Winds: from the E (100 degrees) at 8 MPH (7 knots; 3.6 m/s)
Visibility: 6 miles (10 km)
Ceiling: at least 12,000 feet AGL
Clouds: sky clear below 12,000 feet AGL
Present Weather: BR  (mist)
SOME DATA ABOVE MAY BE INACCURATE!!!
"$" is an indication the sensor requires maintenance
KFMY 291053Z 10007KT 6SM BR CLR 23/23 A3009 RMK AO2 SLP190 T02330228 $

Conditions at: KFMY observed 29 April 2017  09:53 UTC
Temperature: 23.3°C (74°F)
Dewpoint: 22.8°C (73°F) [RH = 97%]
Pressure (altimeter): 30.07 inches Hg (1018.4 mb)
[Sea-level pressure: 1018.3 mb]
Winds: from the E (100 degrees) at 9 MPH (8 knots; 4.2 m/s)
Visibility: 8 miles (13 km)
Ceiling: at least 12,000 feet AGL
Clouds: sky clear below 12,000 feet AGL
Present Weather:
SOME DATA ABOVE MAY BE INACCURATE!!!
"$" is an indication the sensor requires maintenance
KFMY 290953Z AUTO 10008KT 8SM CLR 23/23 A3007 RMK AO2 SLP183 T02330228 $

Conditions at: KFMY observed 29 April 2017  08:53 UTC
Temperature: 23.3°C (74°F)
Dewpoint: 22.8°C (73°F) [RH = 97%]
Pressure (altimeter): 30.07 inches Hg (1018.4 mb)
[Sea-level pressure: 1018.3 mb]
Winds: from the E (90 degrees) at 8 MPH (7 knots; 3.6 m/s)
Visibility: 8 miles (13 km)
Ceiling: at least 12,000 feet AGL
Clouds: sky clear below 12,000 feet AGL
Present Weather:
SOME DATA ABOVE MAY BE INACCURATE!!!
"$" is an indication the sensor requires maintenance
KFMY 290853Z AUTO 09007KT 8SM CLR 23/23 A3007 RMK AO2 SLP183 T02330228 55005 $

Conditions at: KFMY observed 29 April 2017  07:53 UTC
Temperature: 23.3°C (74°F)
Dewpoint: 22.8°C (73°F) [RH = 97%]
Pressure (altimeter): 30.06 inches Hg (1018.0 mb)
[Sea-level pressure: 1018.2 mb]
Winds: from the E (100 degrees) at 7 MPH (6 knots; 3.1 m/s)
Visibility: 8 miles (13 km)
Ceiling: at least 12,000 feet AGL
Clouds: sky clear below 12,000 feet AGL
Present Weather:
SOME DATA ABOVE MAY BE INACCURATE!!!
"$" is an indication the sensor requires maintenance
KFMY 290753Z AUTO 10006KT 8SM CLR 23/23 A3006 RMK AO2 SLP182 T02330228 $

Conditions at: KFMY observed 29 April 2017  06:53 UTC
Temperature: 23.9°C (75°F)
Dewpoint: 22.8°C (73°F) [RH = 94%]
Pressure (altimeter): 30.07 inches Hg (1018.4 mb)
[Sea-level pressure: 1018.3 mb]
Winds: from the ESE (110 degrees) at 8 MPH (7 knots; 3.6 m/s)
Visibility: 9 miles (14 km)
Ceiling: at least 12,000 feet AGL
Clouds: sky clear below 12,000 feet AGL
Present Weather:
SOME DATA ABOVE MAY BE INACCURATE!!!
"$" is an indication the sensor requires maintenance
KFMY 290653Z AUTO 11007KT 9SM CLR 24/23 A3007 RMK AO2 SLP183 T02390228 $

Conditions at: KFMY observed 29 April 2017  05:53 UTC
Temperature: 24.4°C (76°F)
Dewpoint: 22.8°C (73°F) [RH = 91%]
Pressure (altimeter): 30.08 inches Hg (1018.7 mb)
[Sea-level pressure: 1018.7 mb]
Winds: from the E (100 degrees) at 9 MPH (8 knots; 4.2 m/s)
Visibility: 9 miles (14 km)
Ceiling: at least 12,000 feet AGL
Clouds: sky clear below 12,000 feet AGL
Present Weather:
SOME DATA ABOVE MAY BE INACCURATE!!!
"$" is an indication the sensor requires maintenance
KFMY 290553Z AUTO 10008KT 9SM CLR 24/23 A3008 RMK AO2 SLP187 T02440228 10294 20244 51003 $

Conditions at: KFMY observed 29 April 2017  04:53 UTC
Temperature: 25.0°C (77°F)
Dewpoint: 22.8°C (73°F) [RH = 88%]
Pressure (altimeter): 30.08 inches Hg (1018.7 mb)
[Sea-level pressure: 1018.7 mb]
Winds: from the E (100 degrees) at 10 MPH (9 knots; 4.7 m/s)
Visibility: 10 or more miles (16+ km)
Ceiling: at least 12,000 feet AGL
Clouds: sky clear below 12,000 feet AGL
Present Weather:
SOME DATA ABOVE MAY BE INACCURATE!!!
"$" is an indication the sensor requires maintenance
KFMY 290453Z AUTO 10009KT 10SM CLR 25/23 A3008 RMK AO2 SLP187 T02500228 403560217 $

Conditions at: KFMY observed 29 April 2017  03:53 UTC
Temperature: 25.6°C (78°F)
Dewpoint: 22.2°C (72°F) [RH = 82%]
Pressure (altimeter): 30.08 inches Hg (1018.7 mb)
[Sea-level pressure: 1018.6 mb]
Winds: from the E (100 degrees) at 10 MPH (9 knots; 4.7 m/s)
Visibility: 10 or more miles (16+ km)
Ceiling: at least 12,000 feet AGL
Clouds: sky clear below 12,000 feet AGL
Present Weather:
SOME DATA ABOVE MAY BE INACCURATE!!!
"$" is an indication the sensor requires maintenance
KFMY 290353Z AUTO 10009KT 10SM CLR 26/22 A3008 RMK AO2 SLP186 T02560222 $

Conditions at: KFMY observed 29 April 2017  02:53 UTC
Temperature: 26.1°C (79°F)
Dewpoint: 21.7°C (71°F) [RH = 77%]
Pressure (altimeter): 30.07 inches Hg (1018.4 mb)
[Sea-level pressure: 1018.4 mb]
Winds: from the ESE (110 degrees) at 13 MPH (11 knots; 5.7 m/s)
Visibility: 10 or more miles (16+ km)
Ceiling: at least 12,000 feet AGL
Clouds: sky clear below 12,000 feet AGL
Present Weather:
SOME DATA ABOVE MAY BE INACCURATE!!!
"$" is an indication the sensor requires maintenance
KFMY 290253Z AUTO 11011KT 10SM CLR 26/22 A3007 RMK AO2 SLP184 T02610217 50016 $

Conditions at: KFMY observed 29 April 2017  01:53 UTC
Temperature: 27.2°C (81°F)
Dewpoint: 21.1°C (70°F) [RH = 69%]
Pressure (altimeter): 30.07 inches Hg (1018.4 mb)
[Sea-level pressure: 1018.5 mb]
Winds: from the ESE (110 degrees) at 9 MPH (8 knots; 4.2 m/s)
Visibility: 10 or more miles (16+ km)
Ceiling: at least 12,000 feet AGL
Clouds: sky clear below 12,000 feet AGL
Present Weather:
SOME DATA ABOVE MAY BE INACCURATE!!!
"$" is an indication the sensor requires maintenance
KFMY 290153Z 11008KT 10SM CLR 27/21 A3007 RMK AO2 SLP185 T02720211 $

Conditions at: KFMY observed 29 April 2017  00:53 UTC
Temperature: 28.9°C (84°F)
Dewpoint: 20.6°C (69°F) [RH = 61%]
Pressure (altimeter): 30.05 inches Hg (1017.7 mb)
[Sea-level pressure: 1017.7 mb]
Winds: from the ESE (120 degrees) at 9 MPH (8 knots; 4.2 m/s)
Visibility: 10 or more miles (16+ km)
Ceiling: at least 12,000 feet AGL
Clouds: sky clear below 12,000 feet AGL
Present Weather:
SOME DATA ABOVE MAY BE INACCURATE!!!
"$" is an indication the sensor requires maintenance
KFMY 290053Z 12008KT 10SM CLR 29/21 A3005 RMK AO2 SLP177 T02890206 $

Conditions at: KFMY observed 28 April 2017  23:53 UTC
Temperature: 28.9°C (84°F)
Dewpoint: 23.9°C (75°F) [RH = 74%]
Pressure (altimeter): 30.02 inches Hg (1016.7 mb)
[Sea-level pressure: 1016.8 mb]
Winds: from the S (190 degrees) at 3 MPH (3 knots; 1.6 m/s)
Visibility: 10 or more miles (16+ km)
Ceiling: 6000 feet AGL
Clouds: broken clouds at 6000 feet AGL
Present Weather: no significant weather observed at this time
KFMY 282353Z 19003KT 10SM BKN060 29/24 A3002 RMK AO2 SLP168 T02890239 10356 20283 53011

Conditions at: KFMY observed 28 April 2017  22:53 UTC
Temperature: 29.4°C (85°F)
Dewpoint: 23.3°C (74°F) [RH = 70%]
Pressure (altimeter): 30.01 inches Hg (1016.3 mb)
[Sea-level pressure: 1016.3 mb]
Winds: from the SSW (200 degrees) at 9 MPH (8 knots; 4.2 m/s)
Visibility: 10 or more miles (16+ km)
Ceiling: at least 12,000 feet AGL
Clouds: sky clear below 12,000 feet AGL
Present Weather: no significant weather observed at this time
KFMY 282253Z 20008KT 10SM CLR 29/23 A3001 RMK AO2 SLP163 T02940233

Conditions at: KFMY observed 28 April 2017  21:53 UTC
Temperature: 31.7°C (89°F)
Dewpoint: 22.8°C (73°F) [RH = 59%]
Pressure (altimeter): 30.00 inches Hg (1016.0 mb)
[Sea-level pressure: 1015.9 mb]
Winds: from the S (190 degrees) at 8 MPH (7 knots; 3.6 m/s)
Visibility: 10 or more miles (16+ km)
Ceiling: at least 12,000 feet AGL
Clouds: few clouds at 6000 feet AGL
Present Weather: no significant weather observed at this time
KFMY 282153Z 19007KT 10SM FEW060 32/23 A3000 RMK AO2 SLP159 T03170228

Conditions at: KFMY observed 28 April 2017  20:53 UTC
Temperature: 33.9°C (93°F)
Dewpoint: 21.7°C (71°F) [RH = 49%]
Pressure (altimeter): 29.99 inches Hg (1015.7 mb)
[Sea-level pressure: 1015.8 mb]
Winds: from the SSW (210 degrees) at 8 MPH (7 knots; 3.6 m/s)
Visibility: 10 or more miles (16+ km)
Ceiling: at least 12,000 feet AGL
Clouds: sky clear below 12,000 feet AGL
Present Weather: no significant weather observed at this time
KFMY 282053Z 21007KT 180V240 10SM CLR 34/22 A2999 RMK AO2 SLP158 T03390217 56013

Conditions at: KFMY observed 28 April 2017  19:53 UTC
Temperature: 33.9°C (93°F)
Dewpoint: 21.7°C (71°F) [RH = 49%]
Pressure (altimeter): 30.00 inches Hg (1016.0 mb)
[Sea-level pressure: 1016.0 mb]
Winds: from the SSW (210 degrees) at 13 MPH (11 knots; 5.7 m/s)
gusting to 18 MPH (16 knots; 8.3 m/s)
Visibility: 10 or more miles (16+ km)
Ceiling: at least 12,000 feet AGL
Clouds: few clouds at 6500 feet AGL
few clouds at 8000 feet AGL
Present Weather: no significant weather observed at this time
KFMY 281953Z 21011G16KT 10SM FEW065 FEW080 34/22 A3000 RMK AO2 SLP160 T03390217

Conditions at: KFMY observed 28 April 2017  18:53 UTC
Temperature: 34.4°C (94°F)
Dewpoint: 22.2°C (72°F) [RH = 49%]
Pressure (altimeter): 30.01 inches Hg (1016.3 mb)
[Sea-level pressure: 1016.4 mb]
Winds: variable direction winds at 5 MPH (4 knots; 2.1 m/s)
Visibility: 10 or more miles (16+ km)
Ceiling: at least 12,000 feet AGL
Clouds: scattered clouds at 7000 feet AGL
Present Weather: no significant weather observed at this time
KFMY 281853Z VRB04KT 10SM SCT070 34/22 A3001 RMK AO2 SLP164 T03440222

Conditions at: KFMY observed 28 April 2017  17:53 UTC
Temperature: 34.4°C (94°F)
Dewpoint: 20.0°C (68°F) [RH = 43%]
Pressure (altimeter): 30.03 inches Hg (1017.0 mb)
[Sea-level pressure: 1017.0 mb]
Winds: variable direction winds at 6 MPH (5 knots; 2.6 m/s)
gusting to 22 MPH (19 knots; 9.9 m/s)
Visibility: 10 or more miles (16+ km)
Ceiling: at least 12,000 feet AGL
Clouds: few clouds at 9000 feet AGL
Present Weather: no significant weather observed at this time
KFMY 281753Z VRB05G19KT 10SM FEW090 34/20 A3003 RMK AO2 SLP170 T03440200 10350 20244 58009

Conditions at: KFMY observed 28 April 2017  16:53 UTC
Temperature: 33.3°C (92°F)
Dewpoint: 21.7°C (71°F) [RH = 51%]
Pressure (altimeter): 30.04 inches Hg (1017.4 mb)
[Sea-level pressure: 1017.5 mb]
Winds: from the ESE (110 degrees) at 10 MPH (9 knots; 4.7 m/s)
gusting to 18 MPH (16 knots; 8.3 m/s)
Visibility: 10 or more miles (16+ km)
Ceiling: at least 12,000 feet AGL
Clouds: few clouds at 4000 feet AGL
scattered clouds at 4800 feet AGL
scattered clouds at 6000 feet AGL
Present Weather: no significant weather observed at this time
KFMY 281653Z 11009G16KT 10SM FEW040 SCT048 SCT060 33/22 A3004 RMK AO2 SLP175 T03330217

Conditions at: KFMY observed 28 April 2017  15:53 UTC
Temperature: 31.7°C (89°F)
Dewpoint: 22.8°C (73°F) [RH = 59%]
Pressure (altimeter): 30.06 inches Hg (1018.0 mb)
[Sea-level pressure: 1018.0 mb]
Winds: from the SE (130 degrees) at 10 MPH (9 knots; 4.7 m/s)
Visibility: 10 or more miles (16+ km)
Ceiling: at least 12,000 feet AGL
Clouds: few clouds at 6500 feet AGL
Present Weather: no significant weather observed at this time
KFMY 281553Z 13009KT 10SM FEW065 32/23 A3006 RMK AO2 SLP180 T03170228